sensor_id;sensor_type;location;lat;lon;timestamp;temperature;humidity
22147;DHT22;13074;48.298;14.424;2023-11-19T02:13:18;4.00;99.90
22147;DHT22;13074;48.298;14.424;2023-11-19T02:15:46;4.10;99.90
22147;DHT22;13074;48.298;14.424;2023-11-19T02:18:20;4.10;99.90
22147;DHT22;13074;48.298;14.424;2023-11-19T02:20:49;3.90;99.90
22147;DHT22;13074;48.298;14.424;2023-11-19T02:23:17;4.10;99.90
22147;DHT22;13074;48.298;14.424;2023-11-19T02:25:52;4.10;99.90
22147;DHT22;13074;48.298;14.424;2023-11-19T02:28:24;4.40;99.90
22147;DHT22;13074;48.298;14.424;2023-11-19T02:30:52;4.10;99.90
22147;DHT22;13074;48.298;14.424;2023-11-19T02:33:19;4.10;99.90
22147;DHT22;13074;48.298;14.424;2023-11-19T02:35:47;4.00;99.90
22147;DHT22;13074;48.298;14.424;2023-11-19T02:38:14;4.00;99.90
22147;DHT22;13074;48.298;14.424;2023-11-19T02:40:41;3.90;99.90
22147;DHT22;13074;48.298;14.424;2023-11-19T02:43:08;3.80;99.90
22147;DHT22;13074;48.298;14.424;2023-11-19T02:45:37;3.80;99.90
22147;DHT22;13074;48.298;14.424;2023-11-19T02:48:04;3.80;99.90
22147;DHT22;13074;48.298;14.424;2023-11-19T02:50:33;3.80;99.90
22147;DHT22;13074;48.298;14.424;2023-11-19T02:53:01;3.80;99.90
22147;DHT22;13074;48.298;14.424;2023-11-19T02:55:28;3.80;99.90
22147;DHT22;13074;48.298;14.424;2023-11-19T02:58:02;3.80;99.90
22147;DHT22;13074;48.298;14.424;2023-11-19T03:00:39;3.80;99.90
22147;DHT22;13074;48.298;14.424;2023-11-19T03:03:14;3.90;99.90
22147;DHT22;13074;48.298;14.424;2023-11-19T03:05:46;3.80;99.90
22147;DHT22;13074;48.298;14.424;2023-11-19T03:08:14;4.20;99.90
22147;DHT22;13074;48.298;14.424;2023-11-19T03:10:42;3.80;99.90
22147;DHT22;13074;48.298;14.424;2023-11-19T03:13:12;3.80;99.90
22147;DHT22;13074;48.298;14.424;2023-11-19T03:15:42;3.80;99.90
22147;DHT22;13074;48.298;14.424;2023-11-19T03:18:10;3.70;99.90
22147;DHT22;13074;48.298;14.424;2023-11-19T03:20:37;3.70;99.90
22147;DHT22;13074;48.298;14.424;2023-11-19T03:23:05;3.70;99.90
22147;DHT22;13074;48.298;14.424;2023-11-19T03:25:32;3.70;99.90
22147;DHT22;13074;48.298;14.424;2023-11-19T03:28:01;3.70;99.90
22147;DHT22;13074;48.298;14.424;2023-11-19T03:30:29;3.60;99.90
22147;DHT22;13074;48.298;14.424;2023-11-19T03:32:58;3.60;99.90
22147;DHT22;13074;48.298;14.424;2023-11-19T03:35:26;3.70;99.90
22147;DHT22;13074;48.298;14.424;2023-11-19T03:37:55;3.70;99.90
22147;DHT22;13074;48.298;14.424;2023-11-19T03:40:22;3.90;99.90
22147;DHT22;13074;48.298;14.424;2023-11-19T03:42:51;3.90;99.90
22147;DHT22;13074;48.298;14.424;2023-11-19T03:45:18;4.00;99.90
22147;DHT22;13074;48.298;14.424;2023-11-19T03:47:45;4.10;99.90
22147;DHT22;13074;48.298;14.424;2023-11-19T03:50:15;4.20;99.90
22147;DHT22;13074;48.298;14.424;2023-11-19T03:52:43;4.20;99.90
22147;DHT22;13074;48.298;14.424;2023-11-19T03:55:11;4.30;99.90
22147;DHT22;13074;48.298;14.424;2023-11-19T03:57:39;4.30;99.90
22147;DHT22;13074;48.298;14.424;2023-11-19T04:00:07;4.30;99.90
22147;DHT22;13074;48.298;14.424;2023-11-19T04:02:36;4.40;99.90
22147;DHT22;13074;48.298;14.424;2023-11-19T04:05:04;4.40;99.90
22147;DHT22;13074;48.298;14.424;2023-11-19T04:07:34;4.40;99.90
22147;DHT22;13074;48.298;14.424;2023-11-19T04:10:02;4.50;99.90
22147;DHT22;13074;48.298;14.424;2023-11-19T04:12:29;4.50;99.90
22147;DHT22;13074;48.298;14.424;2023-11-19T04:14:57;4.50;99.90
22147;DHT22;13074;48.298;14.424;2023-11-19T04:17:24;4.50;99.90
22147;DHT22;13074;48.298;14.424;2023-11-19T04:19:52;4.50;99.90
22147;DHT22;13074;48.298;14.424;2023-11-19T04:22:20;4.50;99.90
22147;DHT22;13074;48.298;14.424;2023-11-19T04:24:49;4.50;99.90
22147;DHT22;13074;48.298;14.424;2023-11-19T04:27:16;4.50;99.90
22147;DHT22;13074;48.298;14.424;2023-11-19T04:29:44;4.50;99.90
22147;DHT22;13074;48.298;14.424;2023-11-19T04:32:12;4.50;99.90
22147;DHT22;13074;48.298;14.424;2023-11-19T04:34:40;4.50;99.90
22147;DHT22;13074;48.298;14.424;2023-11-19T04:37:07;4.40;99.90
22147;DHT22;13074;48.298;14.424;2023-11-19T04:39:35;4.40;99.90
22147;DHT22;13074;48.298;14.424;2023-11-19T04:42:05;4.30;99.90
22147;DHT22;13074;48.298;14.424;2023-11-19T04:44:32;4.30;99.90
22147;DHT22;13074;48.298;14.424;2023-11-19T04:47:00;4.20;99.90
22147;DHT22;13074;48.298;14.424;2023-11-19T04:49:28;4.20;99.90
22147;DHT22;13074;48.298;14.424;2023-11-19T04:51:56;4.20;99.90
22147;DHT22;13074;48.298;14.424;2023-11-19T04:54:23;4.20;99.90
22147;DHT22;13074;48.298;14.424;2023-11-19T04:56:51;4.20;99.90
22147;DHT22;13074;48.298;14.424;2023-11-19T04:59:20;4.10;99.90
22147;DHT22;13074;48.298;14.424;2023-11-19T05:01:47;4.10;99.90
22147;DHT22;13074;48.298;14.424;2023-11-19T05:04:15;4.00;99.90
22147;DHT22;13074;48.298;14.424;2023-11-19T05:06:43;3.90;99.90
22147;DHT22;13074;48.298;14.424;2023-11-19T05:09:10;3.90;99.90
22147;DHT22;13074;48.298;14.424;2023-11-19T05:11:39;3.90;99.90
22147;DHT22;13074;48.298;14.424;2023-11-19T05:14:07;3.90;99.90
22147;DHT22;13074;48.298;14.424;2023-11-19T05:16:37;3.90;99.90
22147;DHT22;13074;48.298;14.424;2023-11-19T05:19:06;3.90;99.90
22147;DHT22;13074;48.298;14.424;2023-11-19T05:21:34;3.90;99.90
22147;DHT22;13074;48.298;14.424;2023-11-19T05:24:02;3.90;99.90
22147;DHT22;13074;48.298;14.424;2023-11-19T05:26:31;3.90;99.90
22147;DHT22;13074;48.298;14.424;2023-11-19T05:28:58;4.00;99.90
22147;DHT22;13074;48.298;14.424;2023-11-19T05:31:25;4.00;99.90
22147;DHT22;13074;48.298;14.424;2023-11-19T05:33:54;4.00;99.90
22147;DHT22;13074;48.298;14.424;2023-11-19T05:36:22;4.10;99.90
22147;DHT22;13074;48.298;14.424;2023-11-19T05:38:49;4.00;99.90
22147;DHT22;13074;48.298;14.424;2023-11-19T05:41:17;3.90;99.90
22147;DHT22;13074;48.298;14.424;2023-11-19T05:43:45;4.00;99.90
22147;DHT22;13074;48.298;14.424;2023-11-19T05:46:13;4.10;99.90
22147;DHT22;13074;48.298;14.424;2023-11-19T05:48:40;4.20;99.90
22147;DHT22;13074;48.298;14.424;2023-11-19T05:51:10;4.30;99.90
22147;DHT22;13074;48.298;14.424;2023-11-19T05:53:37;4.30;99.90
22147;DHT22;13074;48.298;14.424;2023-11-19T05:56:05;4.40;99.90
22147;DHT22;13074;48.298;14.424;2023-11-19T05:58:35;4.40;99.90
22147;DHT22;13074;48.298;14.424;2023-11-19T06:01:03;4.50;99.90
22147;DHT22;13074;48.298;14.424;2023-11-19T06:03:33;4.60;99.90
22147;DHT22;13074;48.298;14.424;2023-11-19T06:06:00;4.60;99.90
22147;DHT22;13074;48.298;14.424;2023-11-19T06:08:29;4.70;99.90
22147;DHT22;13074;48.298;14.424;2023-11-19T06:10:57;4.70;99.90
22147;DHT22;13074;48.298;14.424;2023-11-19T06:13:26;4.80;99.90
22147;DHT22;13074;48.298;14.424;2023-11-19T06:15:56;4.80;99.90
22147;DHT22;13074;48.298;14.424;2023-11-19T06:18:32;4.80;99.90
22147;DHT22;13074;48.298;14.424;2023-11-19T06:21:00;4.90;99.90
22147;DHT22;13074;48.298;14.424;2023-11-19T06:23:30;4.90;99.90
22147;DHT22;13074;48.298;14.424;2023-11-19T06:25:58;4.90;99.90
22147;DHT22;13074;48.298;14.424;2023-11-19T06:28:26;5.00;99.90
22147;DHT22;13074;48.298;14.424;2023-11-19T06:30:55;5.00;99.90
22147;DHT22;13074;48.298;14.424;2023-11-19T06:33:24;5.00;99.90
22147;DHT22;13074;48.298;14.424;2023-11-19T06:35:52;5.00;99.90
22147;DHT22;13074;48.298;14.424;2023-11-19T06:38:20;5.00;99.90
22147;DHT22;13074;48.298;14.424;2023-11-19T06:40:49;5.00;99.90
22147;DHT22;13074;48.298;14.424;2023-11-19T06:43:16;5.00;99.90
22147;DHT22;13074;48.298;14.424;2023-11-19T06:45:44;5.00;99.90
22147;DHT22;13074;48.298;14.424;2023-11-19T06:48:12;5.00;99.90
22147;DHT22;13074;48.298;14.424;2023-11-19T06:50:40;5.10;99.90
22147;DHT22;13074;48.298;14.424;2023-11-19T06:53:08;5.10;99.90
22147;DHT22;13074;48.298;14.424;2023-11-19T06:55:36;5.10;99.90
22147;DHT22;13074;48.298;14.424;2023-11-19T06:58:05;5.10;99.90
22147;DHT22;13074;48.298;14.424;2023-11-19T07:00:33;5.10;99.90
22147;DHT22;13074;48.298;14.424;2023-11-19T07:03:02;5.10;99.90
22147;DHT22;13074;48.298;14.424;2023-11-19T07:05:36;5.20;99.90
22147;DHT22;13074;48.298;14.424;2023-11-19T07:08:05;5.20;99.90
22147;DHT22;13074;48.298;14.424;2023-11-19T07:10:33;5.20;99.90
22147;DHT22;13074;48.298;14.424;2023-11-19T07:13:01;5.30;99.90
22147;DHT22;13074;48.298;14.424;2023-11-19T07:15:33;5.30;99.90
22147;DHT22;13074;48.298;14.424;2023-11-19T07:18:00;5.30;99.90
22147;DHT22;13074;48.298;14.424;2023-11-19T07:20:28;5.20;99.90
22147;DHT22;13074;48.298;14.424;2023-11-19T07:22:57;5.20;99.90
22147;DHT22;13074;48.298;14.424;2023-11-19T07:25:24;5.20;99.90
22147;DHT22;13074;48.298;14.424;2023-11-19T07:27:52;5.20;99.90
22147;DHT22;13074;48.298;14.424;2023-11-19T07:30:20;5.20;99.90
22147;DHT22;13074;48.298;14.424;2023-11-19T07:32:51;5.20;99.90
22147;DHT22;13074;48.298;14.424;2023-11-19T07:35:19;5.30;99.90
22147;DHT22;13074;48.298;14.424;2023-11-19T07:37:49;5.30;99.90
22147;DHT22;13074;48.298;14.424;2023-11-19T07:40:18;5.30;99.90
22147;DHT22;13074;48.298;14.424;2023-11-19T07:42:46;5.40;99.90
22147;DHT22;13074;48.298;14.424;2023-11-19T07:45:15;5.40;99.90
22147;DHT22;13074;48.298;14.424;2023-11-19T07:47:42;5.40;99.90
22147;DHT22;13074;48.298;14.424;2023-11-19T07:50:13;5.50;99.90
22147;DHT22;13074;48.298;14.424;2023-11-19T07:52:46;5.50;99.90
22147;DHT22;13074;48.298;14.424;2023-11-19T07:55:16;5.60;99.90
22147;DHT22;13074;48.298;14.424;2023-11-19T07:57:45;5.60;99.90
22147;DHT22;13074;48.298;14.424;2023-11-19T08:00:17;4.90;99.90
22147;DHT22;13074;48.298;14.424;2023-11-19T08:02:47;5.50;99.90
22147;DHT22;13074;48.298;14.424;2023-11-19T08:05:19;5.50;99.90
22147;DHT22;13074;48.298;14.424;2023-11-19T08:07:46;5.50;99.90
22147;DHT22;13074;48.298;14.424;2023-11-19T08:10:14;5.50;99.90
22147;DHT22;13074;48.298;14.424;2023-11-19T08:12:42;5.40;99.90
22147;DHT22;13074;48.298;14.424;2023-11-19T08:15:10;5.40;99.90
22147;DHT22;13074;48.298;14.424;2023-11-19T08:17:39;5.40;99.90
22147;DHT22;13074;48.298;14.424;2023-11-19T08:20:08;5.40;99.90
22147;DHT22;13074;48.298;14.424;2023-11-19T08:22:40;5.40;99.90
22147;DHT22;13074;48.298;14.424;2023-11-19T08:25:09;5.50;99.90
22147;DHT22;13074;48.298;14.424;2023-11-19T08:27:44;5.60;99.90
22147;DHT22;13074;48.298;14.424;2023-11-19T08:30:15;5.60;99.90
22147;DHT22;13074;48.298;14.424;2023-11-19T08:32:43;5.70;99.90
22147;DHT22;13074;48.298;14.424;2023-11-19T08:35:13;5.60;99.90
22147;DHT22;13074;48.298;14.424;2023-11-19T08:37:46;5.60;99.90
22147;DHT22;13074;48.298;14.424;2023-11-19T08:40:14;5.60;99.90
22147;DHT22;13074;48.298;14.424;2023-11-19T08:42:43;5.60;99.90
22147;DHT22;13074;48.298;14.424;2023-11-19T08:45:15;5.70;99.90
22147;DHT22;13074;48.298;14.424;2023-11-19T08:47:46;5.70;99.90
22147;DHT22;13074;48.298;14.424;2023-11-19T08:50:37;5.80;99.90
22147;DHT22;13074;48.298;14.424;2023-11-19T08:56:50;6.00;99.90
22147;DHT22;13074;48.298;14.424;2023-11-19T08:59:30;6.00;99.90
22147;DHT22;13074;48.298;14.424;2023-11-19T09:02:04;6.00;99.90
22147;DHT22;13074;48.298;14.424;2023-11-19T09:05:06;6.10;99.90
22147;DHT22;13074;48.298;14.424;2023-11-19T09:07:50;6.20;99.90
22147;DHT22;13074;48.298;14.424;2023-11-19T09:10:59;6.10;99.90
22147;DHT22;13074;48.298;14.424;2023-11-19T09:14:04;6.10;99.90
22147;DHT22;13074;48.298;14.424;2023-11-19T09:16:42;6.20;99.90
22147;DHT22;13074;48.298;14.424;2023-11-19T09:19:43;6.30;99.90
22147;DHT22;13074;48.298;14.424;2023-11-19T09:22:28;6.30;99.90
22147;DHT22;13074;48.298;14.424;2023-11-19T09:25:22;6.30;99.90
22147;DHT22;13074;48.298;14.424;2023-11-19T09:28:13;6.30;99.90
22147;DHT22;13074;48.298;14.424;2023-11-19T09:34:34;6.40;99.90
22147;DHT22;13074;48.298;14.424;2023-11-19T09:37:22;6.40;99.90
22147;DHT22;13074;48.298;14.424;2023-11-19T09:40:18;6.50;99.90
22147;DHT22;13074;48.298;14.424;2023-11-19T09:46:49;6.80;99.90
22147;DHT22;13074;48.298;14.424;2023-11-19T18:24:48;8.50;99.90
22147;DHT22;13074;48.298;14.424;2023-11-19T18:27:18;8.80;99.90
22147;DHT22;13074;48.298;14.424;2023-11-19T18:29:48;9.00;99.90
22147;DHT22;13074;48.298;14.424;2023-11-19T18:32:20;9.20;99.90
22147;DHT22;13074;48.298;14.424;2023-11-19T18:34:48;9.30;99.90
22147;DHT22;13074;48.298;14.424;2023-11-19T18:39:58;9.30;99.90
22147;DHT22;13074;48.298;14.424;2023-11-19T18:42:40;9.00;99.90
22147;DHT22;13074;48.298;14.424;2023-11-19T18:45:33;9.20;99.90
22147;DHT22;13074;48.298;14.424;2023-11-19T18:48:09;9.30;99.90
22147;DHT22;13074;48.298;14.424;2023-11-19T18:50:45;9.30;99.90
22147;DHT22;13074;48.298;14.424;2023-11-19T18:53:20;9.30;99.90
22147;DHT22;13074;48.298;14.424;2023-11-19T18:55:54;9.40;99.90
22147;DHT22;13074;48.298;14.424;2023-11-19T18:58:37;9.40;99.90
22147;DHT22;13074;48.298;14.424;2023-11-19T19:01:07;9.50;99.90
22147;DHT22;13074;48.298;14.424;2023-11-19T19:03:40;9.40;99.90
22147;DHT22;13074;48.298;14.424;2023-11-19T19:35:11;9.70;99.90
22147;DHT22;13074;48.298;14.424;2023-11-19T19:37:45;9.80;99.90
22147;DHT22;13074;48.298;14.424;2023-11-19T19:40:21;9.80;99.90
22147;DHT22;13074;48.298;14.424;2023-11-19T19:42:56;9.80;99.90
22147;DHT22;13074;48.298;14.424;2023-11-19T19:45:56;9.90;99.90
22147;DHT22;13074;48.298;14.424;2023-11-19T19:49:04;10.00;99.90
22147;DHT22;13074;48.298;14.424;2023-11-19T19:51:37;9.90;99.90
22147;DHT22;13074;48.298;14.424;2023-11-19T19:54:23;10.10;99.90
22147;DHT22;13074;48.298;14.424;2023-11-19T19:57:04;10.20;99.90
22147;DHT22;13074;48.298;14.424;2023-11-19T20:23:10;10.00;99.90
22147;DHT22;13074;48.298;14.424;2023-11-19T20:25:46;10.10;99.90
22147;DHT22;13074;48.298;14.424;2023-11-19T20:28:28;10.10;99.90
22147;DHT22;13074;48.298;14.424;2023-11-19T20:33:41;9.90;99.90
22147;DHT22;13074;48.298;14.424;2023-11-19T20:36:11;9.80;99.90
22147;DHT22;13074;48.298;14.424;2023-11-19T20:38:51;9.70;99.90
22147;DHT22;13074;48.298;14.424;2023-11-19T20:41:38;9.60;99.90
22147;DHT22;13074;48.298;14.424;2023-11-19T20:44:10;9.50;99.90
22147;DHT22;13074;48.298;14.424;2023-11-19T20:46:56;9.40;99.90
22147;DHT22;13074;48.298;14.424;2023-11-19T20:49:39;9.80;99.90
22147;DHT22;13074;48.298;14.424;2023-11-19T20:52:14;9.70;99.90
22147;DHT22;13074;48.298;14.424;2023-11-19T20:55:02;9.80;99.90
22147;DHT22;13074;48.298;14.424;2023-11-19T20:57:41;10.00;99.90
22147;DHT22;13074;48.298;14.424;2023-11-19T21:00:19;10.10;99.90
22147;DHT22;13074;48.298;14.424;2023-11-19T21:03:03;10.20;99.90
22147;DHT22;13074;48.298;14.424;2023-11-19T21:05:51;10.30;99.90
22147;DHT22;13074;48.298;14.424;2023-11-19T21:08:31;10.40;99.90
22147;DHT22;13074;48.298;14.424;2023-11-19T21:11:32;10.40;99.90
22147;DHT22;13074;48.298;14.424;2023-11-19T21:24:59;10.70;99.90
22147;DHT22;13074;48.298;14.424;2023-11-19T21:27:45;10.80;99.90
22147;DHT22;13074;48.298;14.424;2023-11-19T21:30:30;10.90;99.90
22147;DHT22;13074;48.298;14.424;2023-11-19T21:33:08;10.80;99.90
22147;DHT22;13074;48.298;14.424;2023-11-19T21:35:51;11.00;99.90
22147;DHT22;13074;48.298;14.424;2023-11-19T21:38:33;10.90;99.90
22147;DHT22;13074;48.298;14.424;2023-11-19T21:41:33;11.00;99.90
22147;DHT22;13074;48.298;14.424;2023-11-19T21:44:20;10.90;99.90
22147;DHT22;13074;48.298;14.424;2023-11-19T21:47:08;10.80;99.90
22147;DHT22;13074;48.298;14.424;2023-11-19T21:49:45;10.90;99.90
22147;DHT22;13074;48.298;14.424;2023-11-19T21:52:21;10.90;99.90
22147;DHT22;13074;48.298;14.424;2023-11-19T21:54:53;10.90;99.90
22147;DHT22;13074;48.298;14.424;2023-11-19T21:57:35;10.90;99.90
22147;DHT22;13074;48.298;14.424;2023-11-19T22:00:19;10.90;99.90
22147;DHT22;13074;48.298;14.424;2023-11-19T22:03:06;10.90;99.90
22147;DHT22;13074;48.298;14.424;2023-11-19T22:05:40;10.80;99.90
22147;DHT22;13074;48.298;14.424;2023-11-19T22:08:26;10.80;99.90
22147;DHT22;13074;48.298;14.424;2023-11-19T22:10:59;11.00;99.90
22147;DHT22;13074;48.298;14.424;2023-11-19T22:56:48;10.80;99.90
22147;DHT22;13074;48.298;14.424;2023-11-19T22:59:34;10.60;99.90
22147;DHT22;13074;48.298;14.424;2023-11-19T23:02:18;10.60;99.90
22147;DHT22;13074;48.298;14.424;2023-11-19T23:05:22;10.50;99.90
22147;DHT22;13074;48.298;14.424;2023-11-19T23:08:15;10.40;99.90
22147;DHT22;13074;48.298;14.424;2023-11-19T23:11:08;10.50;99.90
22147;DHT22;13074;48.298;14.424;2023-11-19T23:13:47;10.30;99.90
22147;DHT22;13074;48.298;14.424;2023-11-19T23:19:53;10.00;99.90
22147;DHT22;13074;48.298;14.424;2023-11-19T23:26:01;10.30;99.90
22147;DHT22;13074;48.298;14.424;2023-11-19T23:28:37;10.30;99.90
22147;DHT22;13074;48.298;14.424;2023-11-19T23:31:50;10.30;99.90
22147;DHT22;13074;48.298;14.424;2023-11-19T23:34:34;10.30;99.90
22147;DHT22;13074;48.298;14.424;2023-11-19T23:37:16;10.40;99.90
22147;DHT22;13074;48.298;14.424;2023-11-19T23:40:04;10.40;99.90
22147;DHT22;13074;48.298;14.424;2023-11-19T23:42:42;10.40;99.90
22147;DHT22;13074;48.298;14.424;2023-11-19T23:45:35;10.40;99.90
22147;DHT22;13074;48.298;14.424;2023-11-19T23:48:23;10.40;99.90
22147;DHT22;13074;48.298;14.424;2023-11-19T23:51:24;10.30;99.90
22147;DHT22;13074;48.298;14.424;2023-11-19T23:54:14;10.30;99.90
22147;DHT22;13074;48.298;14.424;2023-11-19T23:56:54;10.30;99.90
22147;DHT22;13074;48.298;14.424;2023-11-19T23:59:42;10.30;99.90
